Time;durP1;ratioP1;P1;durP2;ratioP2;P2;SDS_P1;SDS_P2;PMS_P1;PMS_P2;Temp;Humidity;BMP_temperature;BMP_pressure;BME280_temperature;BME280_humidity;BME280_pressure;Samples;Min_cycle;Max_cycle;Signal;HPM_P1;HPM_P2
2021/06/15 05:50:54;;;;;;;;;;;;;;;25.24;60.44;101065.50;5093019;27;1486;-69
2021/06/15 05:53:19;;;;;;;;;;;;;;;25.43;58.78;101067.97;5044773;28;63051;-69
2021/06/15 05:58:40;;;;;;;;;;;;;;;26.06;54.79;101074.16;5125014;27;1476;-75
2021/06/15 06:09:06;;;;;;;;;;;;;;;21.34;57.98;101057.19;5070861;27;18128;-88
2021/06/15 06:11:31;;;;;;;;;;;;;;;20.55;59.98;101060.13;5056707;28;1270;-87
2021/06/15 06:13:57;;;;;;;;;;;;;;;19.96;61.32;101063.81;5030831;28;1583;-86
2021/06/15 06:16:22;;;;;;;;;;;;;;;19.56;62.52;101060.94;5028152;28;1254;-90
2021/06/15 06:18:47;;;;;;;;;;;;;;;19.27;63.03;101060.75;5032512;28;1250;-85
2021/06/15 06:21:13;;;;;;;;;;;;;;;19.11;63.47;101056.44;5035019;28;1209;-83
2021/06/15 06:23:39;;;;;;;;;;;;;;;18.94;64.07;101063.03;5036284;28;1896;-89
2021/06/15 06:26:04;;;;;;;;;;;;;;;18.82;64.65;101062.50;5036250;28;848;-89
2021/06/15 06:28:30;;;;;;;;;;;;;;;18.76;65.00;101061.63;5035135;28;1298;-87
2021/06/15 06:30:55;;;;;;;;;;;;;;;18.72;65.56;101059.75;5033014;28;1313;-90
2021/06/15 06:33:20;;;;;;;;;;;;;;;18.69;65.73;101063.84;5032950;28;1293;-85
2021/06/15 06:35:46;;;;;;;;;;;;;;;18.60;65.74;101061.94;5041664;28;1032;-90
2021/06/15 06:38:11;;;;;;;;;;;;;;;18.48;65.88;101071.19;5032914;28;1255;-90
2021/06/15 06:40:37;;;;;;;;;;;;;;;18.44;66.13;101059.19;5032489;28;1318;-89
2021/06/15 06:43:02;;;;;;;;;;;;;;;18.41;66.29;101059.75;5032966;28;1878;-90
2021/06/15 06:45:28;;;;;;;;;;;;;;;18.39;66.53;101063.81;5032342;28;1238;-88
2021/06/15 06:47:53;;;;;;;;;;;;;;;18.34;66.26;101057.25;5032442;28;1156;-88
2021/06/15 06:50:18;;;;;;;;;;;;;;;18.34;66.38;101059.16;5033332;28;1122;-90
2021/06/15 06:52:44;;;;;;;;;;;;;;;18.31;66.51;101046.06;5052861;28;729;-88
2021/06/15 06:55:09;;;;;;;;;;;;;;;18.28;66.70;101049.34;5052226;28;1179;-92
2021/06/15 06:57:35;;;;;;;;;;;;;;;18.30;66.63;101047.16;5053276;28;756;-90
2021/06/15 07:00:00;;;;;;;;;;;;;;;18.35;67.57;101050.72;5050251;28;1274;-78
2021/06/15 07:02:26;;;;;;;;;;;;;;;18.41;66.88;101035.19;5052416;28;1874;-85
2021/06/15 07:04:51;;;;;;;;;;;;;;;18.39;66.63;101031.91;5032513;28;1293;-89
2021/06/15 07:07:16;;;;;;;;;;;;;;;18.38;66.48;101034.91;5025802;28;1524;-87
2021/06/15 07:09:41;;;;;;;;;;;;;;;18.38;66.52;101038.44;5054948;28;1163;-88
2021/06/15 07:12:07;;;;;;;;;;;;;;;18.41;66.23;101031.63;5019997;28;1679;-87
2021/06/15 07:14:32;;;;;;;;;;;;;;;18.41;66.39;101035.19;5019281;28;1591;-89
2021/06/15 07:16:57;;;;;;;;;;;;;;;18.46;66.25;101037.91;5022307;28;839;-84
2021/06/15 07:19:23;;;;;;;;;;;;;;;18.55;66.10;101030.81;5000276;28;1568;-88
2021/06/15 07:21:48;;;;;;;;;;;;;;;18.66;65.95;101031.63;5018226;28;1983;-89
2021/06/15 07:24:13;;;;;;;;;;;;;;;18.73;65.76;101031.34;5005880;28;1334;-90
2021/06/15 07:26:39;;;;;;;;;;;;;;;18.80;65.63;101026.47;5019664;28;812;-92
2021/06/15 07:29:04;;;;;;;;;;;;;;;18.91;65.92;101027.25;5018556;28;1152;-90
2021/06/15 07:31:30;;;;;;;;;;;;;;;19.01;65.60;101020.97;5020354;28;846;-88
2021/06/15 07:33:55;;;;;;;;;;;;;;;19.06;64.87;101016.31;5019228;28;1203;-90
2021/06/15 07:36:20;;;;;;;;;;;;;;;19.11;64.99;101018.22;5051471;28;1250;-88
2021/06/15 07:38:46;;;;;;;;;;;;;;;19.20;64.68;101018.47;5018648;28;1163;-85
2021/06/15 07:41:11;;;;;;;;;;;;;;;19.27;64.92;101019.78;5017395;28;1190;-88
2021/06/15 07:43:37;;;;;;;;;;;;;;;19.33;64.53;101021.41;5017667;28;1867;-88
2021/06/15 07:46:03;;;;;;;;;;;;;;;19.39;64.09;101008.56;5017641;28;1223;-82
2021/06/15 07:48:28;;;;;;;;;;;;;;;19.42;63.99;101018.09;5017294;28;832;-81
2021/06/15 07:50:54;;;;;;;;;;;;;;;19.49;63.55;101008.50;5018765;28;1223;-87
2021/06/15 07:53:19;;;;;;;;;;;;;;;19.54;63.78;101010.41;5011249;28;1567;-87
2021/06/15 07:55:44;;;;;;;;;;;;;;;19.68;63.80;101010.59;5004356;28;1560;-88
2021/06/15 07:58:11;;;;;;;;;;;;;;;19.77;63.73;101014.41;5014013;28;1281;-86
2021/06/15 08:00:37;;;;;;;;;;;;;;;19.87;63.27;101022.56;5017432;28;1167;-83
2021/06/15 08:03:02;;;;;;;;;;;;;;;19.92;62.44;101017.06;5015862;28;1976;-84
2021/06/15 08:05:27;;;;;;;;;;;;;;;19.91;60.62;101009.97;5018740;28;1339;-84
2021/06/15 08:07:54;;;;;;;;;;;;;;;19.85;60.63;101013.03;5016882;28;1269;-84
2021/06/15 08:10:20;;;;;;;;;;;;;;;19.86;60.89;101012.75;5016641;28;1269;-87
2021/06/15 08:12:46;;;;;;;;;;;;;;;19.96;60.79;101011.88;5016870;28;1246;-83
2021/06/15 08:15:11;;;;;;;;;;;;;;;20.03;60.55;101003.34;5011396;28;1327;-83
2021/06/15 08:17:37;;;;;;;;;;;;;;;20.02;60.17;101013.47;5007785;28;1480;-82
2021/06/15 08:20:03;;;;;;;;;;;;;;;20.05;60.15;101006.59;5011959;28;1083;-79
2021/06/15 08:22:28;;;;;;;;;;;;;;;20.09;59.88;101008.47;5005208;28;1886;-79
2021/06/15 08:24:54;;;;;;;;;;;;;;;20.12;59.64;101002.47;5013428;28;1295;-82
2021/06/15 08:27:19;;;;;;;;;;;;;;;20.21;59.57;100996.38;5014622;28;1282;-82
2021/06/15 08:29:44;;;;;;;;;;;;;;;20.24;58.47;100999.38;5006124;28;1568;-83
2021/06/15 08:32:10;;;;;;;;;;;;;;;20.20;58.61;100994.72;5014600;28;1000;-83
2021/06/15 08:34:37;;;;;;;;;;;;;;;20.19;58.44;101002.13;5015872;28;1212;-82
2021/06/15 08:37:02;;;;;;;;;;;;;;;20.26;57.70;101001.78;5017890;28;808;-83
2021/06/15 08:39:27;;;;;;;;;;;;;;;20.35;58.01;100994.63;5011937;28;1467;-83
2021/06/15 08:41:53;;;;;;;;;;;;;;;20.47;57.26;100986.84;5007985;28;1937;-83
2021/06/15 08:44:18;;;;;;;;;;;;;;;20.49;56.60;100997.50;5046265;28;1384;-84
2021/06/15 08:46:45;;;;;;;;;;;;;;;20.51;57.38;100993.38;5008351;28;1181;-83
2021/06/15 08:49:10;;;;;;;;;;;;;;;20.55;56.75;100991.69;5010651;28;751;-85
2021/06/15 08:51:35;;;;;;;;;;;;;;;20.60;57.52;100990.06;5009019;28;1396;-85
2021/06/15 08:54:04;;;;;;;;;;;;;;;20.71;57.53;100986.13;5007779;28;1290;-85
2021/06/15 08:56:33;;;;;;;;;;;;;;;20.82;57.03;100992.31;5012193;28;773;-84
2021/06/15 08:59:15;;;;;;;;;;;;;;;20.92;56.82;100992.19;5023631;28;704;-83
2021/06/15 09:01:41;;;;;;;;;;;;;;;21.01;57.43;100984.19;5016605;28;1898;-84
2021/06/15 09:04:07;;;;;;;;;;;;;;;21.09;56.40;100972.56;5017156;28;1369;-84
2021/06/15 09:06:32;;;;;;;;;;;;;;;21.14;56.41;100975.25;5016956;28;1245;-84
2021/06/15 09:08:58;;;;;;;;;;;;;;;21.25;56.49;100974.03;5016675;28;1177;-85
2021/06/15 09:11:24;;;;;;;;;;;;;;;21.33;56.29;100976.09;5017050;28;1317;-84
2021/06/15 09:13:50;;;;;;;;;;;;;;;21.39;55.45;100970.53;5016594;28;1186;-87
2021/06/15 09:16:18;;;;;;;;;;;;;;;21.43;54.58;100968.88;5016428;28;1273;-87
2021/06/15 09:18:44;;;;;;;;;;;;;;;21.45;55.12;100966.66;5016649;28;1254;-85
2021/06/15 09:21:10;;;;;;;;;;;;;;;21.52;55.36;100967.94;5014251;28;1275;-84
2021/06/15 09:23:36;;;;;;;;;;;;;;;21.59;55.33;100969.50;5007881;28;1961;-83
2021/06/15 09:26:02;;;;;;;;;;;;;;;21.56;54.71;100961.88;5001624;28;1211;-87
2021/06/15 09:28:28;;;;;;;;;;;;;;;21.56;54.57;100967.34;5017898;28;736;-86
2021/06/15 09:30:57;;;;;;;;;;;;;;;21.57;54.62;100972.56;5049500;28;1211;-87
2021/06/15 09:33:36;;;;;;;;;;;;;;;21.64;54.63;100967.50;5016857;28;1033;-86
2021/06/15 09:36:24;;;;;;;;;;;;;;;21.74;55.27;100958.31;5017778;28;1142;-87
2021/06/15 09:38:57;;;;;;;;;;;;;;;21.78;54.28;100956.63;5009089;28;1465;-88
2021/06/15 09:41:39;;;;;;;;;;;;;;;21.77;54.77;100954.97;5011072;28;1215;-85
2021/06/15 09:44:26;;;;;;;;;;;;;;;21.74;54.82;100956.38;4999188;28;1299;-87
2021/06/15 09:46:52;;;;;;;;;;;;;;;21.86;55.36;100950.44;4998051;28;824;-88
2021/06/15 09:49:31;;;;;;;;;;;;;;;21.84;54.72;100955.41;4996562;28;1180;-84
2021/06/15 09:52:09;;;;;;;;;;;;;;;21.84;54.52;100960.09;5011000;28;1476;-85
2021/06/15 09:54:38;;;;;;;;;;;;;;;21.93;54.84;100958.28;5039707;28;1590;-85
2021/06/15 09:57:04;;;;;;;;;;;;;;;22.01;54.17;100957.63;5007985;28;1477;-80
2021/06/15 09:59:30;;;;;;;;;;;;;;;21.90;53.90;100956.16;5006598;28;1477;-87
2021/06/15 10:01:56;;;;;;;;;;;;;;;21.82;53.77;100959.59;5004765;28;1882;-84
2021/06/15 10:04:23;;;;;;;;;;;;;;;21.69;53.19;100952.91;4999084;28;1608;-79
2021/06/15 10:06:52;;;;;;;;;;;;;;;21.60;52.09;100946.47;5008323;28;1509;-85
2021/06/15 10:09:27;;;;;;;;;;;;;;;21.58;52.50;100946.75;5007321;28;1181;-86
2021/06/15 10:11:53;;;;;;;;;;;;;;;21.72;53.08;100933.94;4997044;28;828;-87
2021/06/15 10:14:19;;;;;;;;;;;;;;;21.71;52.28;100934.22;5007488;28;1597;-86
2021/06/15 10:16:44;;;;;;;;;;;;;;;21.67;51.72;100944.16;5044386;28;1360;-88
2021/06/15 10:19:11;;;;;;;;;;;;;;;21.52;51.67;100931.50;5016708;28;1270;-84
2021/06/15 10:21:36;;;;;;;;;;;;;;;21.60;52.28;100933.56;5010037;28;1358;-84
2021/06/15 10:24:02;;;;;;;;;;;;;;;21.69;51.72;100933.72;5001556;28;1890;-83
2021/06/15 10:26:28;;;;;;;;;;;;;;;21.70;52.06;100929.88;5015558;28;1220;-83
2021/06/15 10:28:53;;;;;;;;;;;;;;;21.74;51.39;100928.16;5012828;28;1322;-81
2021/06/15 10:31:26;;;;;;;;;;;;;;;21.79;51.37;100927.25;5013352;28;1291;-80
2021/06/15 10:33:51;;;;;;;;;;;;;;;21.69;51.40;100936.44;5014458;28;1373;-82
2021/06/15 10:36:17;;;;;;;;;;;;;;;21.68;51.49;100935.63;5015377;28;1344;-81
2021/06/15 10:38:43;;;;;;;;;;;;;;;21.81;52.05;100931.34;5014641;28;1241;-82
2021/06/15 10:41:19;;;;;;;;;;;;;;;21.93;51.50;100931.72;5015600;28;1415;-82
2021/06/15 10:43:45;;;;;;;;;;;;;;;21.89;50.93;100927.94;5015646;28;1867;-82
2021/06/15 10:46:13;;;;;;;;;;;;;;;21.80;51.17;100937.94;5013401;28;1572;-82
2021/06/15 10:48:46;;;;;;;;;;;;;;;21.72;51.71;100931.19;5016168;28;1488;-83
2021/06/15 10:51:22;;;;;;;;;;;;;;;21.71;52.09;100929.56;5017471;28;1312;-83
2021/06/15 10:53:48;;;;;;;;;;;;;;;21.70;52.79;100925.19;5017435;28;1173;-83
2021/06/15 10:56:15;;;;;;;;;;;;;;;21.71;52.89;100928.75;5018108;28;1405;-83
2021/06/15 10:58:44;;;;;;;;;;;;;;;21.71;51.89;100923.25;5017973;28;1363;-83
2021/06/15 11:01:12;;;;;;;;;;;;;;;21.67;50.93;100925.81;5011966;28;1390;-82
2021/06/15 11:03:44;;;;;;;;;;;;;;;21.51;49.20;100927.09;5005636;28;1964;-84
2021/06/15 11:06:09;;;;;;;;;;;;;;;21.45;50.45;100926.38;5018367;28;1517;-82
2021/06/15 11:08:34;;;;;;;;;;;;;;;21.40;50.52;100926.41;5003711;28;725;-83
2021/06/15 11:11:01;;;;;;;;;;;;;;;21.34;49.74;100927.59;4998540;28;843;-84
2021/06/15 11:13:39;;;;;;;;;;;;;;;21.33;50.63;100928.72;4998184;28;1362;-83
2021/06/15 11:16:04;;;;;;;;;;;;;;;21.18;50.27;100934.38;4999620;28;702;-82
2021/06/15 11:18:29;;;;;;;;;;;;;;;20.99;50.89;100918.75;4999457;28;836;-82
2021/06/15 11:20:55;;;;;;;;;;;;;;;20.87;51.72;100938.31;5043868;28;1211;-83
2021/06/15 11:23:20;;;;;;;;;;;;;;;20.61;51.69;100942.44;5050734;28;1934;-81
2021/06/15 11:25:46;;;;;;;;;;;;;;;20.51;52.85;100935.91;5015682;28;1576;-82
2021/06/15 11:28:30;;;;;;;;;;;;;;;20.46;53.89;100943.34;5008906;28;1493;-83
2021/06/15 11:31:15;;;;;;;;;;;;;;;20.42;54.42;100939.56;5043220;28;1188;-82
2021/06/15 11:33:59;;;;;;;;;;;;;;;20.41;55.14;100949.69;5030836;28;1188;-82
2021/06/15 11:36:43;;;;;;;;;;;;;;;20.43;55.66;100936.53;5047673;28;1449;-82
2021/06/15 11:39:32;;;;;;;;;;;;;;;20.39;56.03;100942.88;5018448;28;741;-82
2021/06/15 11:42:09;;;;;;;;;;;;;;;20.31;56.68;100942.38;5050110;28;1920;-82
2021/06/15 11:45:04;;;;;;;;;;;;;;;20.25;57.08;100938.06;5018311;28;1231;-82
2021/06/15 11:47:35;;;;;;;;;;;;;;;20.22;57.45;100937.81;5022085;28;1386;-83
2021/06/15 11:50:04;;;;;;;;;;;;;;;20.19;58.24;100933.75;5014365;28;1465;-82
2021/06/15 11:52:29;;;;;;;;;;;;;;;20.21;58.58;100931.53;5013781;28;861;-84
2021/06/15 11:54:55;;;;;;;;;;;;;;;20.21;58.79;100936.22;5003515;28;1179;-78
2021/06/15 11:57:20;;;;;;;;;;;;;;;20.37;60.83;100934.97;4996751;28;1192;-79
2021/06/15 11:59:45;;;;;;;;;;;;;;;20.59;60.08;100931.78;4997362;28;1216;-81
2021/06/15 12:02:11;;;;;;;;;;;;;;;20.70;59.41;100932.47;4998225;28;1886;-80
2021/06/15 12:04:36;;;;;;;;;;;;;;;20.81;59.51;100935.94;5009339;28;1239;-81
2021/06/15 12:07:15;;;;;;;;;;;;;;;20.84;59.37;100933.41;5016347;28;1238;-79
2021/06/15 12:09:59;;;;;;;;;;;;;;;20.83;59.63;100931.78;5016613;28;1329;-78
2021/06/15 12:12:24;;;;;;;;;;;;;;;20.95;59.16;100925.91;5016072;28;1262;-83
2021/06/15 12:14:50;;;;;;;;;;;;;;;20.73;58.68;100929.16;5017283;28;737;-82
2021/06/15 12:17:15;;;;;;;;;;;;;;;20.46;59.38;100927.75;5016275;28;1147;-83
2021/06/15 12:19:40;;;;;;;;;;;;;;;20.25;59.93;100931.78;5015731;28;1436;-82
2021/06/15 12:22:15;;;;;;;;;;;;;;;20.06;60.40;100927.03;5017071;28;1943;-82
2021/06/15 12:24:44;;;;;;;;;;;;;;;19.91;60.43;100927.94;5016154;28;1362;-83
2021/06/15 12:27:19;;;;;;;;;;;;;;;19.77;60.98;100917.94;5017373;28;854;-83
2021/06/15 12:29:45;;;;;;;;;;;;;;;19.66;61.71;100922.63;5013980;28;1520;-84
2021/06/15 12:32:10;;;;;;;;;;;;;;;19.56;61.92;100924.34;5003159;28;1509;-83
2021/06/15 12:34:35;;;;;;;;;;;;;;;19.50;62.20;100906.34;5010819;28;1267;-83
2021/06/15 12:37:03;;;;;;;;;;;;;;;19.50;62.32;100911.00;5016727;28;711;-83
2021/06/15 12:39:30;;;;;;;;;;;;;;;19.50;62.70;100906.34;5014676;28;1263;-83
2021/06/15 12:41:58;;;;;;;;;;;;;;;19.48;63.77;100914.00;5007131;28;1867;-83
2021/06/15 12:44:42;;;;;;;;;;;;;;;19.60;64.66;100902.72;5002523;28;1353;-79
2021/06/15 12:47:12;;;;;;;;;;;;;;;19.87;64.37;100898.75;5010932;28;1654;-82
2021/06/15 12:49:37;;;;;;;;;;;;;;;19.70;63.19;100891.72;5005623;28;1457;-85
2021/06/15 12:52:10;;;;;;;;;;;;;;;19.48;63.50;100886.69;5039206;28;1491;-83
2021/06/15 12:54:42;;;;;;;;;;;;;;;19.30;63.95;100879.97;4999785;28;863;-82
2021/06/15 12:57:11;;;;;;;;;;;;;;;19.23;64.09;100890.38;4994511;28;1132;-83
2021/06/15 12:59:37;;;;;;;;;;;;;;;19.14;64.38;100883.88;5028641;28;1171;-83
2021/06/15 13:02:12;;;;;;;;;;;;;;;19.00;64.53;100886.38;4995494;28;1966;-83
2021/06/15 13:04:45;;;;;;;;;;;;;;;18.83;64.76;100885.91;4997310;28;1170;-82
2021/06/15 13:07:12;;;;;;;;;;;;;;;18.66;65.56;100873.38;5015181;28;1195;-84
2021/06/15 13:09:37;;;;;;;;;;;;;;;18.53;66.13;100877.53;5014680;28;1309;-84
2021/06/15 13:12:05;;;;;;;;;;;;;;;18.50;66.21;100877.25;5015300;28;686;-85
2021/06/15 13:14:31;;;;;;;;;;;;;;;18.55;66.82;100872.59;5014884;28;1294;-85
2021/06/15 13:16:58;;;;;;;;;;;;;;;18.56;66.95;100873.41;5014807;28;1278;-82
2021/06/15 13:19:23;;;;;;;;;;;;;;;18.61;67.25;100867.94;5014356;28;1310;-84
2021/06/15 13:21:50;;;;;;;;;;;;;;;18.68;67.33;100863.00;5014667;28;1875;-84
2021/06/15 13:24:17;;;;;;;;;;;;;;;18.64;67.38;100859.19;5014376;28;1301;-84
2021/06/15 13:26:43;;;;;;;;;;;;;;;18.63;67.57;100860.28;5015369;28;1202;-84
2021/06/15 13:29:08;;;;;;;;;;;;;;;18.62;67.85;100863.31;5015736;28;721;-84
2021/06/15 13:31:33;;;;;;;;;;;;;;;18.61;68.35;100858.94;5021934;28;1221;-86
2021/06/15 13:34:07;;;;;;;;;;;;;;;18.58;68.31;100862.22;5034441;28;1250;-85
2021/06/15 13:36:32;;;;;;;;;;;;;;;18.56;68.58;100859.78;5018411;28;1248;-85
2021/06/15 13:39:10;;;;;;;;;;;;;;;18.58;68.66;100863.03;5009682;28;1203;-85
2021/06/15 13:41:35;;;;;;;;;;;;;;;18.60;69.08;100868.22;5048551;28;1302;-85
2021/06/15 13:44:01;;;;;;;;;;;;;;;18.52;68.73;100858.69;5007572;28;1863;-84
2021/06/15 13:46:27;;;;;;;;;;;;;;;18.46;68.92;100852.44;5011842;28;1382;-85
2021/06/15 13:48:57;;;;;;;;;;;;;;;18.41;68.81;100857.91;5006365;28;1489;-84
2021/06/15 13:51:22;;;;;;;;;;;;;;;18.38;69.22;100852.19;5011134;28;1373;-85
2021/06/15 13:53:48;;;;;;;;;;;;;;;18.35;69.24;100859.81;5002741;28;1275;-84
2021/06/15 13:56:13;;;;;;;;;;;;;;;18.30;69.35;100848.09;5038958;28;1547;-85
2021/06/15 13:58:39;;;;;;;;;;;;;;;18.32;69.47;100856.81;5004121;28;772;-84
2021/06/15 14:01:04;;;;;;;;;;;;;;;18.23;69.80;100862.03;5005678;28;1450;-84
2021/06/15 14:03:30;;;;;;;;;;;;;;;18.11;69.82;100853.31;5003767;28;1957;-83
2021/06/15 14:05:55;;;;;;;;;;;;;;;18.07;70.16;100844.03;5011767;28;1370;-82
2021/06/15 14:08:20;;;;;;;;;;;;;;;18.08;70.29;100846.50;5036075;28;1562;-83
2021/06/15 14:10:46;;;;;;;;;;;;;;;18.05;70.23;100840.78;5003485;28;796;-84
2021/06/15 14:13:14;;;;;;;;;;;;;;;18.04;70.17;100839.97;5003263;28;1560;-85
2021/06/15 14:15:39;;;;;;;;;;;;;;;18.04;70.25;100839.16;5000356;28;1616;-82
2021/06/15 14:18:04;;;;;;;;;;;;;;;18.01;70.35;100837.78;4994378;28;1224;-82
2021/06/15 14:20:31;;;;;;;;;;;;;;;17.93;70.46;100828.25;5004551;28;1200;-86
2021/06/15 14:22:57;;;;;;;;;;;;;;;17.89;70.70;100827.19;5015111;28;1965;-83
2021/06/15 14:25:24;;;;;;;;;;;;;;;17.84;71.02;100816.25;5019341;28;832;-84
2021/06/15 14:27:50;;;;;;;;;;;;;;;17.78;71.11;100811.88;5018978;28;1245;-84
2021/06/15 14:30:19;;;;;;;;;;;;;;;17.78;71.41;100812.69;5020422;28;724;-85
2021/06/15 14:32:45;;;;;;;;;;;;;;;17.82;71.32;100801.25;5019791;28;1120;-85
2021/06/15 14:35:12;;;;;;;;;;;;;;;17.76;71.29;100797.72;5019983;28;1134;-84
2021/06/15 14:37:37;;;;;;;;;;;;;;;17.71;71.55;100784.91;5019650;28;1172;-84
2021/06/15 14:40:04;;;;;;;;;;;;;;;17.75;71.30;100782.47;5019169;28;1128;-83
2021/06/15 14:42:29;;;;;;;;;;;;;;;17.76;71.33;100771.28;5020706;28;1939;-85
2021/06/15 14:44:54;;;;;;;;;;;;;;;17.77;71.36;100767.47;5018806;28;1191;-84
2021/06/15 14:47:21;;;;;;;;;;;;;;;17.76;71.23;100752.19;5019695;28;1124;-86
2021/06/15 14:49:46;;;;;;;;;;;;;;;17.74;71.22;100756.31;5020030;28;1249;-85
2021/06/15 14:52:11;;;;;;;;;;;;;;;17.76;71.11;100754.13;5020333;28;748;-85
2021/06/15 14:54:37;;;;;;;;;;;;;;;17.82;71.06;100736.66;5020031;28;858;-85
2021/06/15 14:57:02;;;;;;;;;;;;;;;17.83;70.88;100732.91;5018849;28;1280;-86
2021/06/15 14:59:28;;;;;;;;;;;;;;;17.81;70.60;100720.59;5020312;28;834;-86
2021/06/15 15:01:54;;;;;;;;;;;;;;;17.80;70.49;100718.97;5019426;28;1983;-86
2021/06/15 15:04:20;;;;;;;;;;;;;;;17.82;70.74;100711.34;5019616;28;909;-85
2021/06/15 15:06:45;;;;;;;;;;;;;;;17.82;70.26;100711.34;5018971;28;1075;-88
2021/06/15 15:09:10;;;;;;;;;;;;;;;17.76;70.16;100711.34;5017695;28;1385;-86
2021/06/15 15:11:35;;;;;;;;;;;;;;;17.75;70.30;100708.91;5017622;28;1147;-83
2021/06/15 15:14:01;;;;;;;;;;;;;;;17.74;70.40;100705.34;5018507;28;745;-83
2021/06/15 15:16:26;;;;;;;;;;;;;;;17.69;70.29;100701.84;5018183;28;847;-85
2021/06/15 15:18:52;;;;;;;;;;;;;;;17.70;70.61;100706.19;5017956;28;779;-82
2021/06/15 15:21:18;;;;;;;;;;;;;;;17.69;70.44;100699.94;5016811;28;1346;-85
2021/06/15 15:23:46;;;;;;;;;;;;;;;17.68;70.44;100700.19;5017346;28;1906;-83
2021/06/15 15:26:11;;;;;;;;;;;;;;;17.62;70.12;100704.81;5017776;28;725;-85
2021/06/15 15:28:37;;;;;;;;;;;;;;;17.63;70.28;100694.78;5018113;28;827;-84
2021/06/15 15:31:03;;;;;;;;;;;;;;;17.61;69.84;100696.94;5018184;28;767;-85
2021/06/15 15:33:28;;;;;;;;;;;;;;;17.57;69.95;100696.69;5018305;28;701;-85
2021/06/15 15:35:54;;;;;;;;;;;;;;;17.55;70.40;100694.22;5016410;28;1336;-82
2021/06/15 15:38:19;;;;;;;;;;;;;;;17.58;70.20;100688.22;5018179;28;847;-82
2021/06/15 15:40:45;;;;;;;;;;;;;;;17.60;70.46;100684.41;5016856;28;1301;-82
2021/06/15 15:43:12;;;;;;;;;;;;;;;17.60;70.60;100684.41;5016605;28;1862;-83
2021/06/15 15:45:37;;;;;;;;;;;;;;;17.48;70.94;100679.25;5016332;28;1346;-83
2021/06/15 15:48:03;;;;;;;;;;;;;;;17.39;71.23;100676.28;5016332;28;1224;-82
2021/06/15 15:50:32;;;;;;;;;;;;;;;17.33;71.19;100677.38;5017092;28;1418;-86
2021/06/15 15:52:58;;;;;;;;;;;;;;;17.36;71.29;100674.09;5016769;28;1270;-85
2021/06/15 15:55:24;;;;;;;;;;;;;;;17.34;71.33;100681.72;5016374;28;1298;-85
2021/06/15 15:57:51;;;;;;;;;;;;;;;17.34;71.56;100679.81;5007691;28;1485;-82
2021/06/15 16:00:17;;;;;;;;;;;;;;;17.37;71.59;100683.91;5003721;28;1437;-82
2021/06/15 16:02:43;;;;;;;;;;;;;;;17.36;71.49;100674.09;5016323;28;1910;-86
2021/06/15 16:05:09;;;;;;;;;;;;;;;17.29;71.33;100679.81;5034504;28;1622;-82
2021/06/15 16:07:34;;;;;;;;;;;;;;;17.29;70.92;100679.81;5005893;28;1425;-84
2021/06/15 16:09:59;;;;;;;;;;;;;;;17.24;70.61;100685.25;5004420;28;1628;-83
2021/06/15 16:12:24;;;;;;;;;;;;;;;17.20;70.88;100677.91;5006279;28;1306;-81
2021/06/15 16:14:50;;;;;;;;;;;;;;;17.14;70.92;100672.47;5005160;28;1462;-82
2021/06/15 16:17:15;;;;;;;;;;;;;;;17.14;70.88;100683.38;5005505;28;1501;-81
2021/06/15 16:19:41;;;;;;;;;;;;;;;17.17;71.06;100682.81;5006770;28;1517;-83
2021/06/15 16:22:06;;;;;;;;;;;;;;;17.12;71.37;100690.16;5006618;28;1944;-83
2021/06/15 16:24:31;;;;;;;;;;;;;;;17.19;72.55;100676.28;5041719;28;1522;-81
2021/06/15 16:26:58;;;;;;;;;;;;;;;17.29;73.03;100682.53;5001360;28;1605;-80
2021/06/15 16:29:23;;;;;;;;;;;;;;;17.47;73.98;100675.72;5007207;28;1414;-79
2021/06/15 16:31:49;;;;;;;;;;;;;;;17.65;73.19;100668.88;5007273;28;1454;-80
2021/06/15 16:34:14;;;;;;;;;;;;;;;17.75;72.09;100670.78;5004272;28;899;-83
2021/06/15 16:36:40;;;;;;;;;;;;;;;17.67;72.59;100672.16;5017427;28;1166;-78
2021/06/15 16:39:05;;;;;;;;;;;;;;;17.71;71.55;100673.22;5015792;28;1184;-86
2021/06/15 16:41:37;;;;;;;;;;;;;;;17.60;71.34;100676.25;5016418;28;1265;-83
2021/06/15 16:44:02;;;;;;;;;;;;;;;17.46;71.31;100665.09;5019476;28;1969;-90
2021/06/15 16:46:28;;;;;;;;;;;;;;;17.40;71.51;100672.44;5012798;28;1205;-86
2021/06/15 16:48:53;;;;;;;;;;;;;;;17.32;71.93;100667.56;5031017;28;1274;-94
2021/06/15 16:51:18;;;;;;;;;;;;;;;17.28;72.17;100663.75;5019575;28;1258;-89
2021/06/15 16:53:43;;;;;;;;;;;;;;;17.26;72.35;100664.00;5040193;28;737;-91
2021/06/15 16:56:09;;;;;;;;;;;;;;;17.19;72.66;100657.25;5037845;28;1171;-87
2021/06/15 16:58:34;;;;;;;;;;;;;;;17.16;72.84;100662.13;5040671;28;1269;-93
2021/06/15 17:00:59;;;;;;;;;;;;;;;17.21;72.91;100661.31;5038926;28;1266;-90
2021/06/15 17:03:25;;;;;;;;;;;;;;;17.25;73.02;100662.41;5037298;28;1906;-95
2021/06/15 17:05:50;;;;;;;;;;;;;;;17.25;73.48;100656.16;5026612;28;1382;-87
2021/06/15 17:08:15;;;;;;;;;;;;;;;17.23;73.54;100647.44;5005877;28;1556;-92
2021/06/15 17:10:41;;;;;;;;;;;;;;;17.22;73.76;100645.78;5023092;28;1286;-95
2021/06/15 17:13:06;;;;;;;;;;;;;;;17.21;74.10;100644.97;5020153;28;1202;-87
2021/06/15 17:15:33;;;;;;;;;;;;;;;17.21;74.02;100641.44;5019882;28;955;-93
2021/06/15 17:18:03;;;;;;;;;;;;;;;17.18;74.33;100645.50;5013997;28;1179;-89
2021/06/15 17:20:28;;;;;;;;;;;;;;;17.15;74.41;100644.16;5006656;28;1573;-91
2021/06/15 17:22:54;;;;;;;;;;;;;;;17.13;74.90;100640.91;5008815;28;1961;-91
2021/06/15 17:25:19;;;;;;;;;;;;;;;17.13;74.92;100631.91;5038720;28;1404;-88
2021/06/15 17:27:45;;;;;;;;;;;;;;;17.06;75.15;100624.00;5005443;28;1568;-81
2021/06/15 17:30:12;;;;;;;;;;;;;;;17.03;75.20;100630.00;5008685;28;1464;-85
2021/06/15 17:32:37;;;;;;;;;;;;;;;17.10;75.35;100629.72;5002602;28;1545;-83
2021/06/15 17:35:04;;;;;;;;;;;;;;;17.16;75.10;100629.47;5004575;28;1453;-83
2021/06/15 17:37:29;;;;;;;;;;;;;;;17.14;75.27;100622.66;5003033;28;1397;-89
2021/06/15 17:39:55;;;;;;;;;;;;;;;17.19;75.14;100622.66;5009720;28;1329;-84
2021/06/15 17:42:20;;;;;;;;;;;;;;;17.22;75.00;100626.72;5008108;28;1890;-83
2021/06/15 17:44:45;;;;;;;;;;;;;;;17.36;76.26;100625.06;5007831;28;1494;-83
2021/06/15 17:47:11;;;;;;;;;;;;;;;17.52;75.37;100621.22;5002365;28;1577;-85
2021/06/15 17:49:36;;;;;;;;;;;;;;;17.35;74.81;100616.09;5008967;28;1616;-85
2021/06/15 17:52:01;;;;;;;;;;;;;;;17.22;74.94;100622.09;5003047;28;1258;-80
2021/06/15 17:54:29;;;;;;;;;;;;;;;17.34;75.60;100619.94;5006178;28;1798;-78
2021/06/15 17:56:54;;;;;;;;;;;;;;;17.34;75.04;100613.66;5003521;28;1220;-82
2021/06/15 17:59:20;;;;;;;;;;;;;;;17.29;75.09;100611.75;4998119;28;2815;-85
2021/06/15 18:01:45;;;;;;;;;;;;;;;17.24;74.89;100610.94;5008553;28;2588;-86
2021/06/15 18:04:16;;;;;;;;;;;;;;;17.18;74.96;100607.41;5046477;28;2700;-84
2021/06/15 18:06:47;;;;;;;;;;;;;;;17.13;74.88;100615.59;5006014;28;1350;-85
2021/06/15 18:09:21;;;;;;;;;;;;;;;17.13;74.83;100610.97;5002554;28;1607;-85
2021/06/15 18:11:47;;;;;;;;;;;;;;;17.09;75.01;100607.16;5005483;28;1634;-84
2021/06/15 18:14:12;;;;;;;;;;;;;;;17.04;75.20;100607.13;5032343;28;1165;-81
2021/06/15 18:16:38;;;;;;;;;;;;;;;17.00;75.40;100599.81;4994995;28;2691;-83
2021/06/15 18:19:03;;;;;;;;;;;;;;;17.02;75.44;100600.34;4996428;28;726;-84
2021/06/15 18:21:28;;;;;;;;;;;;;;;16.95;76.00;100598.72;5037580;28;1277;-85
2021/06/15 18:23:54;;;;;;;;;;;;;;;16.92;76.07;100593.84;5007593;28;1949;-82
2021/06/15 18:26:19;;;;;;;;;;;;;;;16.83;76.31;100584.56;5014670;28;1418;-82
2021/06/15 18:28:46;;;;;;;;;;;;;;;16.82;76.24;100585.69;5037444;28;1504;-81
2021/06/15 18:31:12;;;;;;;;;;;;;;;16.77;76.63;100591.88;5002705;28;1520;-88
2021/06/15 18:33:37;;;;;;;;;;;;;;;16.79;76.24;100591.63;5007342;28;1659;-86
2021/06/15 18:36:03;;;;;;;;;;;;;;;16.79;76.16;100588.91;5010420;28;1387;-81
2021/06/15 18:38:28;;;;;;;;;;;;;;;16.81;76.49;100584.03;5014945;28;1152;-85
2021/06/15 18:40:53;;;;;;;;;;;;;;;16.84;76.16;100586.22;5014727;28;1261;-85
2021/06/15 18:43:19;;;;;;;;;;;;;;;16.88;75.92;100592.75;5014214;28;1874;-88
2021/06/15 18:45:46;;;;;;;;;;;;;;;16.92;75.76;100596.56;5015334;28;1309;-87
2021/06/15 18:48:11;;;;;;;;;;;;;;;17.01;75.50;100604.16;5016051;28;761;-85